Time;durP1;ratioP1;P1;durP2;ratioP2;P2;SDS_P1;SDS_P2;PMS_P1;PMS_P2;Temp;Humidity;BMP_temperature;BMP_pressure;BME280_temperature;BME280_humidity;BME280_pressure;Samples;Min_cycle;Max_cycle;Signal;HPM_P1;HPM_P2
2023/06/24 00:00:30;;;;;;;9.50;6.35;;;18.10;99.90;;;;;;5069147;28;20049;-70
2023/06/24 00:02:57;;;;;;;9.95;6.60;;;18.10;99.90;;;;;;5050900;28;20048;-70
2023/06/24 00:05:23;;;;;;;12.88;6.47;;;18.10;99.90;;;;;;5069011;28;20091;-70
2023/06/24 00:07:49;;;;;;;10.82;6.95;;;18.10;99.90;;;;;;5069197;28;20076;-70
2023/06/24 00:10:15;;;;;;;9.57;6.95;;;18.00;99.90;;;;;;5069275;28;20115;-70
2023/06/24 00:12:41;;;;;;;8.68;6.90;;;17.90;99.90;;;;;;5068736;28;20052;-70
2023/06/24 00:15:11;;;;;;;9.98;7.78;;;17.90;99.90;;;;;;5069025;28;20067;-70
2023/06/24 00:17:37;;;;;;;12.23;6.80;;;17.90;99.90;;;;;;5069061;28;20044;-70
2023/06/24 00:20:08;;;;;;;9.32;6.22;;;17.80;99.90;;;;;;5069040;28;20072;-70
2023/06/24 00:22:34;;;;;;;9.25;6.40;;;17.80;99.90;;;;;;5069146;28;20151;-70
2023/06/24 00:25:00;;;;;;;8.32;6.05;;;17.80;99.90;;;;;;5068963;28;20094;-70
2023/06/24 00:27:26;;;;;;;8.80;6.65;;;17.80;99.90;;;;;;5068790;28;20056;-70
2023/06/24 00:29:52;;;;;;;9.23;6.75;;;17.70;99.90;;;;;;5068758;28;20147;-70
2023/06/24 00:32:17;;;;;;;8.57;6.90;;;17.70;99.90;;;;;;5068907;28;20209;-70
2023/06/24 00:34:43;;;;;;;9.38;6.45;;;17.70;99.90;;;;;;5068929;28;20040;-70
2023/06/24 00:37:09;;;;;;;10.88;6.80;;;17.70;99.90;;;;;;5069042;28;20052;-71
2023/06/24 00:39:35;;;;;;;9.98;6.97;;;17.60;99.90;;;;;;5068704;28;20368;-70
2023/06/24 00:42:01;;;;;;;9.52;6.88;;;17.50;99.90;;;;;;5068941;28;20063;-70
2023/06/24 00:44:27;;;;;;;10.00;6.97;;;17.40;99.90;;;;;;5069130;28;20052;-70
2023/06/24 00:46:54;;;;;;;8.25;6.90;;;17.50;99.90;;;;;;5068774;28;20052;-70
2023/06/24 00:49:20;;;;;;;9.30;7.05;;;17.50;99.90;;;;;;5069212;28;20048;-70
2023/06/24 00:51:50;;;;;;;8.70;6.97;;;17.50;99.90;;;;;;5050644;28;20522;-70
2023/06/24 00:54:16;;;;;;;11.48;7.43;;;17.50;99.90;;;;;;5050554;28;20087;-70
2023/06/24 00:56:42;;;;;;;9.98;7.72;;;17.30;99.90;;;;;;5068775;28;20066;-70
2023/06/24 00:59:12;;;;;;;12.68;7.47;;;17.20;99.90;;;;;;5069063;28;20119;-70
2023/06/24 01:01:38;;;;;;;9.65;6.80;;;17.20;99.90;;;;;;5068834;28;20055;-70
2023/06/24 01:04:04;;;;;;;10.05;7.10;;;17.20;99.90;;;;;;5071722;28;20037;-70
2023/06/24 01:06:30;;;;;;;7.65;6.78;;;17.10;99.90;;;;;;5071995;28;20071;-70
2023/06/24 01:09:00;;;;;;;10.25;7.13;;;17.20;99.90;;;;;;5072235;28;20111;-69
2023/06/24 01:11:27;;;;;;;8.02;6.53;;;17.20;99.90;;;;;;5072367;28;20072;-70
2023/06/24 01:13:53;;;;;;;9.38;6.47;;;17.00;99.90;;;;;;5054374;28;20083;-71
2023/06/24 01:16:54;;;;;;;9.95;7.15;;;17.10;99.90;;;;;;5073103;28;20067;-70
2023/06/24 01:19:44;;;;;;;8.15;6.93;;;17.10;99.90;;;;;;5082693;28;20121;-71
2023/06/24 01:22:46;;;;;;;7.68;6.47;;;17.10;99.90;;;;;;5079137;28;20117;-70
2023/06/24 01:25:30;;;;;;;9.43;6.22;;;17.10;99.90;;;;;;5072044;28;20212;-70
2023/06/24 01:28:23;;;;;;;9.70;6.75;;;17.10;99.90;;;;;;5074529;28;20064;-70
2023/06/24 01:30:58;;;;;;;;;;;17.10;99.90;;;;;;5092795;28;20063;-70
2023/06/24 01:33:32;;;;;;;8.95;6.63;;;17.10;99.90;;;;;;5092177;28;20247;-70
2023/06/24 01:36:01;;;;;;;11.25;7.22;;;17.00;99.90;;;;;;5092025;28;20495;-69
2023/06/24 01:38:58;;;;;;;10.32;7.20;;;16.90;99.90;;;;;;5091802;28;20052;-70
2023/06/24 01:41:26;;;;;;;9.85;6.93;;;16.80;99.90;;;;;;5088483;28;20130;-70
2023/06/24 01:43:54;;;;;;;10.38;6.95;;;16.70;99.90;;;;;;5091876;28;20056;-70
2023/06/24 01:46:24;;;;;;;11.73;7.55;;;16.70;99.90;;;;;;5091852;28;20056;-70
2023/06/24 01:48:54;;;;;;;9.30;6.75;;;16.60;99.90;;;;;;5091733;28;20051;-71
2023/06/24 01:51:22;;;;;;;10.50;6.90;;;16.50;99.90;;;;;;5091684;28;20044;-70
2023/06/24 01:53:53;;;;;;;14.77;7.00;;;16.60;99.90;;;;;;5091441;28;20127;-70
2023/06/24 01:56:21;;;;;;;7.85;6.20;;;16.60;99.90;;;;;;5091768;28;20127;-70
2023/06/24 01:58:50;;;;;;;11.00;7.50;;;16.60;99.90;;;;;;5073195;28;20071;-70
2023/06/24 06:00:51;;;;;;;13.98;10.25;;;20.00;99.90;;;;;;5069965;28;20055;-70
2023/06/24 06:03:17;;;;;;;14.82;10.98;;;20.20;99.90;;;;;;5071692;28;20052;-71
2023/06/24 06:05:43;;;;;;;14.05;11.35;;;20.20;99.90;;;;;;5071214;28;20384;-69
2023/06/24 06:08:08;;;;;;;14.25;9.52;;;20.40;99.90;;;;;;5053871;28;20040;-81
2023/06/24 06:10:34;;;;;;;14.63;8.95;;;20.40;99.90;;;;;;5054038;28;20053;-81
2023/06/24 06:13:00;;;;;;;13.75;9.55;;;20.50;99.90;;;;;;5070053;28;20048;-82
2023/06/24 06:15:25;;;;;;;15.55;10.00;;;20.50;99.90;;;;;;5071861;28;20049;-81
2023/06/24 06:17:52;;;;;;;12.50;10.10;;;20.60;99.90;;;;;;5054098;28;20111;-81
2023/06/24 06:20:18;;;;;;;13.52;8.88;;;20.70;99.90;;;;;;5053635;28;20415;-79
2023/06/24 06:22:43;;;;;;;12.95;9.70;;;20.70;99.90;;;;;;5071304;28;20044;-80
2023/06/24 06:25:09;;;;;;;16.08;11.15;;;20.70;99.90;;;;;;5071230;28;20127;-80
2023/06/24 06:27:35;;;;;;;16.10;10.35;;;20.80;99.90;;;;;;5052871;28;20048;-80
2023/06/24 06:30:01;;;;;;;15.52;11.25;;;20.80;99.90;;;;;;5088673;28;20056;-82
2023/06/24 06:32:26;;;;;;;15.70;10.32;;;21.00;99.90;;;;;;5073728;28;20122;-82
2023/06/24 06:34:52;;;;;;;13.02;11.00;;;21.10;99.90;;;;;;5091711;28;20386;-80
2023/06/24 06:37:18;;;;;;;15.93;9.25;;;21.20;99.90;;;;;;5091047;28;20063;-80
2023/06/24 06:39:43;;;;;;;12.80;9.45;;;21.20;99.90;;;;;;5091127;28;20043;-80
2023/06/24 06:42:09;;;;;;;13.13;9.45;;;21.40;99.90;;;;;;5091032;28;20036;-80
2023/06/24 06:44:35;;;;;;;12.75;9.63;;;21.40;99.90;;;;;;5072257;28;20495;-81
2023/06/24 06:47:00;;;;;;;11.73;8.88;;;21.50;99.90;;;;;;5072667;28;20063;-81
2023/06/24 06:49:26;;;;;;;14.35;8.80;;;21.60;99.90;;;;;;5091002;28;20380;-81
2023/06/24 06:51:54;;;;;;;15.18;9.45;;;21.70;99.90;;;;;;5072628;28;20056;-81
2023/06/24 06:54:20;;;;;;;10.65;8.15;;;21.70;99.90;;;;;;5061231;28;20220;-81
2023/06/24 06:56:46;;;;;;;12.13;9.55;;;21.80;99.90;;;;;;5057550;28;20155;-81
2023/06/24 06:59:11;;;;;;;11.82;8.55;;;21.90;99.90;;;;;;5074843;28;20483;-81
2023/06/24 07:01:37;;;;;;;13.63;8.85;;;22.00;99.90;;;;;;5079485;28;20056;-82
2023/06/24 07:04:03;;;;;;;13.10;8.70;;;22.10;99.90;;;;;;5078366;28;20055;-81
2023/06/24 07:06:29;;;;;;;13.55;9.18;;;22.10;99.90;;;;;;5083916;28;20111;-81
2023/06/24 07:08:54;;;;;;;12.27;8.52;;;22.20;99.90;;;;;;5082723;28;20044;-81
2023/06/24 07:11:20;;;;;;;9.80;8.13;;;22.30;99.90;;;;;;5094809;28;20069;-80
2023/06/24 07:13:46;;;;;;;12.45;7.82;;;22.30;99.90;;;;;;5090576;28;20040;-82
2023/06/24 07:16:11;;;;;;;11.23;8.10;;;22.40;99.90;;;;;;5090767;28;20051;-81
2023/06/24 07:18:37;;;;;;;9.73;7.35;;;22.50;99.90;;;;;;5072745;28;20067;-81
2023/06/24 07:21:03;;;;;;;11.98;8.38;;;22.60;99.90;;;;;;5071710;28;20048;-80
2023/06/24 07:23:29;;;;;;;11.02;7.45;;;22.70;99.90;;;;;;5060790;28;20056;-80
2023/06/24 07:25:54;;;;;;;9.23;7.80;;;22.70;99.90;;;;;;5068279;28;20072;-79
2023/06/24 07:28:20;;;;;;;13.48;8.00;;;22.80;99.90;;;;;;5051964;28;20051;-80
2023/06/24 07:30:46;;;;;;;13.48;8.07;;;22.80;99.90;;;;;;5070509;28;20059;-79
2023/06/24 07:33:11;;;;;;;10.80;8.10;;;22.90;99.90;;;;;;5052183;28;20061;-75
2023/06/24 07:35:37;;;;;;;12.70;8.43;;;23.10;99.90;;;;;;5070220;28;20056;-75
2023/06/24 07:38:03;;;;;;;10.45;7.90;;;23.20;99.90;;;;;;5052251;28;20052;-76
2023/06/24 07:40:28;;;;;;;12.35;8.27;;;23.40;99.90;;;;;;5051744;28;20049;-76
2023/06/24 07:42:54;;;;;;;11.50;8.18;;;23.40;99.90;;;;;;5069954;28;20052;-76
2023/06/24 07:45:20;;;;;;;11.75;8.50;;;23.60;99.90;;;;;;5069718;28;20049;-75
2023/06/24 07:47:46;;;;;;;10.57;7.80;;;23.60;99.90;;;;;;5052026;28;20044;-75
2023/06/24 07:50:12;;;;;;;10.65;7.40;;;23.70;99.90;;;;;;5069880;28;20036;-76
2023/06/24 07:52:38;;;;;;;14.20;8.15;;;23.90;99.90;;;;;;5069905;28;20048;-75
2023/06/24 07:55:04;;;;;;;10.75;7.35;;;23.90;99.90;;;;;;5070600;28;20048;-76
2023/06/24 07:57:30;;;;;;;12.25;7.80;;;24.10;99.90;;;;;;5069689;28;20140;-76
2023/06/24 07:59:56;;;;;;;11.88;7.95;;;24.10;99.90;;;;;;5051687;28;20135;-76
2023/06/24 08:02:23;;;;;;;12.15;7.22;;;24.20;99.90;;;;;;5051980;28;20428;-76
2023/06/24 08:04:50;;;;;;;9.85;6.90;;;24.30;99.90;;;;;;5069880;28;20080;-76
2023/06/24 08:07:15;;;;;;;8.93;6.40;;;24.50;99.90;;;;;;5051509;28;20056;-76
2023/06/24 08:09:41;;;;;;;9.57;7.18;;;24.40;99.90;;;;;;5051422;28;20052;-75
2023/06/24 08:12:07;;;;;;;11.35;7.53;;;24.50;99.90;;;;;;5069540;28;20052;-75
2023/06/24 08:14:33;;;;;;;9.43;7.90;;;24.50;99.90;;;;;;5073932;28;20049;-76
2023/06/24 08:16:59;;;;;;;11.73;7.95;;;24.50;99.90;;;;;;5073885;28;20056;-75
2023/06/24 08:19:25;;;;;;;13.85;8.65;;;24.60;99.90;;;;;;5073705;28;20036;-76
2023/06/24 08:21:50;;;;;;;9.85;7.25;;;24.50;99.90;;;;;;5073708;28;20083;-76
2023/06/24 08:24:16;;;;;;;11.20;7.75;;;24.60;99.90;;;;;;5055734;28;20560;-76
2023/06/24 08:26:41;;;;;;;11.55;7.45;;;24.50;99.90;;;;;;5073325;28;20055;-76
2023/06/24 08:29:07;;;;;;;12.93;8.13;;;24.60;99.90;;;;;;5074050;28;20040;-76
2023/06/24 08:31:33;;;;;;;12.13;8.45;;;24.60;99.90;;;;;;5073762;28;20060;-75
2023/06/24 08:33:59;;;;;;;11.45;7.85;;;24.60;99.90;;;;;;5074055;28;20447;-76
2023/06/24 08:36:27;;;;;;;12.90;7.95;;;24.70;99.90;;;;;;5055494;28;20052;-76
2023/06/24 08:38:53;;;;;;;15.05;8.45;;;24.80;99.90;;;;;;5073812;28;20048;-73
2023/06/24 08:41:19;;;;;;;13.68;9.15;;;24.90;99.90;;;;;;5073605;28;20051;-75
2023/06/24 08:43:44;;;;;;;16.00;9.27;;;25.00;99.90;;;;;;5073749;28;20102;-76
2023/06/24 08:46:10;;;;;;;13.48;8.65;;;25.00;99.90;;;;;;5054898;28;20480;-75
2023/06/24 08:48:42;;;;;;;11.93;8.00;;;25.00;99.90;;;;;;5072732;28;20090;-74
2023/06/24 08:51:11;;;;;;;13.07;8.48;;;25.20;99.90;;;;;;5072915;28;20044;-74
2023/06/24 08:53:38;;;;;;;10.65;6.85;;;25.20;99.90;;;;;;5078752;28;20466;-74
2023/06/24 08:56:04;;;;;;;10.75;6.18;;;25.40;99.90;;;;;;5066097;28;20067;-74
2023/06/24 08:58:30;;;;;;;9.63;6.18;;;25.40;99.90;;;;;;5072575;28;20044;-74
2023/06/24 09:00:56;;;;;;;10.65;6.43;;;25.50;99.90;;;;;;5072223;28;20062;-74
2023/06/24 09:03:22;;;;;;;13.82;8.82;;;25.60;99.90;;;;;;5072688;28;20430;-75
2023/06/24 09:05:48;;;;;;;12.80;8.20;;;25.60;99.90;;;;;;5072679;28;20057;-76
2023/06/24 09:08:15;;;;;;;13.13;7.97;;;25.70;99.90;;;;;;5054803;28;20056;-76
2023/06/24 09:10:42;;;;;;;13.50;6.72;;;25.70;99.90;;;;;;5059483;28;20055;-75
2023/06/24 09:13:08;;;;;;;12.40;7.28;;;25.70;99.90;;;;;;5092865;28;20051;-76
2023/06/24 09:15:35;;;;;;;8.43;5.40;;;25.80;99.90;;;;;;5075070;28;20390;-76
2023/06/24 09:18:03;;;;;;;10.35;5.70;;;25.80;99.90;;;;;;5074966;28;20063;-76
2023/06/24 09:20:30;;;;;;;9.60;5.90;;;25.80;99.90;;;;;;5093320;28;20052;-76
2023/06/24 09:23:03;;;;;;;9.88;5.78;;;25.80;99.90;;;;;;5092877;28;20109;-81
2023/06/24 09:25:29;;;;;;;10.45;6.38;;;25.60;99.90;;;;;;5093922;28;20067;-80
2023/06/24 09:27:59;;;;;;;8.25;5.85;;;25.70;99.90;;;;;;5093298;28;20064;-75
2023/06/24 09:30:25;;;;;;;7.25;4.95;;;25.60;99.90;;;;;;5074635;28;20152;-77
2023/06/24 09:32:52;;;;;;;7.32;4.20;;;25.80;99.90;;;;;;5093071;28;20123;-76
2023/06/24 09:35:26;;;;;;;10.88;4.30;;;25.90;99.90;;;;;;5093146;28;20052;-76
2023/06/24 09:37:57;;;;;;;6.93;3.92;;;26.00;99.90;;;;;;5092761;28;20090;-76
2023/06/24 09:40:23;;;;;;;7.28;5.35;;;25.90;99.90;;;;;;5074883;28;20066;-76
2023/06/24 09:42:56;;;;;;;6.60;4.82;;;25.80;99.90;;;;;;5057944;28;20193;-77
2023/06/24 09:45:27;;;;;;;7.18;5.18;;;26.00;99.90;;;;;;5093167;28;20056;-77
2023/06/24 09:47:59;;;;;;;6.07;4.20;;;26.10;99.90;;;;;;5073845;28;20074;-74
2023/06/24 09:50:25;;;;;;;9.13;5.18;;;26.20;99.90;;;;;;5091991;28;20517;-74
2023/06/24 09:52:53;;;;;;;7.65;5.05;;;26.20;99.90;;;;;;5073832;28;20052;-74
2023/06/24 09:55:19;;;;;;;11.38;5.53;;;26.20;99.90;;;;;;5091758;28;20080;-73
2023/06/24 09:57:46;;;;;;;9.05;5.65;;;26.10;99.90;;;;;;5091684;28;20201;-74
2023/06/24 10:00:18;;;;;;;7.55;5.13;;;26.20;99.90;;;;;;5091492;28;20419;-73
2023/06/24 10:02:45;;;;;;;6.72;4.50;;;26.20;99.90;;;;;;5091603;28;20051;-74
2023/06/24 10:05:15;;;;;;;7.15;4.35;;;26.20;99.90;;;;;;5091006;28;20052;-71
2023/06/24 10:07:42;;;;;;;7.63;4.28;;;26.20;99.90;;;;;;5090079;28;20059;-72
2023/06/24 10:10:09;;;;;;;7.25;4.70;;;26.30;99.90;;;;;;5091235;28;20056;-71
2023/06/24 10:12:35;;;;;;;8.23;5.13;;;26.40;99.90;;;;;;5090578;28;20190;-72
2023/06/24 10:15:01;;;;;;;11.13;4.25;;;26.40;99.90;;;;;;5090689;28;20497;-71
2023/06/24 10:17:27;;;;;;;7.05;4.00;;;26.40;99.90;;;;;;5089833;28;20113;-71
2023/06/24 10:19:56;;;;;;;9.30;3.60;;;26.50;99.90;;;;;;5090260;28;20051;-71
2023/06/24 10:22:25;;;;;;;6.10;3.58;;;26.60;99.90;;;;;;5090230;28;20158;-71
2023/06/24 10:24:52;;;;;;;7.50;3.67;;;26.60;99.90;;;;;;5071607;28;20052;-71
2023/06/24 10:27:23;;;;;;;5.68;3.78;;;26.60;99.70;;;;;;5089483;28;20054;-71
2023/06/24 10:29:51;;;;;;;4.97;3.50;;;26.60;99.90;;;;;;5089885;28;20131;-71
2023/06/24 10:32:19;;;;;;;5.15;3.13;;;26.70;99.90;;;;;;5089990;28;20155;-72
2023/06/24 10:34:46;;;;;;;4.55;3.00;;;26.70;99.60;;;;;;5071034;28;20056;-71
2023/06/24 10:37:17;;;;;;;7.45;3.60;;;26.60;99.90;;;;;;5089668;28;20147;-71
2023/06/24 10:40:00;;;;;;;5.57;3.23;;;26.60;99.80;;;;;;5090249;28;20113;-73
2023/06/24 10:42:30;;;;;;;6.13;2.90;;;26.70;99.80;;;;;;5087655;28;20270;-72
2023/06/24 10:45:09;;;;;;;4.95;3.20;;;26.70;99.50;;;;;;5090983;28;20047;-72
2023/06/24 10:47:46;;;;;;;6.35;3.28;;;26.90;99.40;;;;;;5090676;28;20055;-72
2023/06/24 10:50:14;;;;;;;5.78;3.03;;;26.80;99.70;;;;;;5090783;28;20040;-71
2023/06/24 10:52:53;;;;;;;9.38;3.35;;;26.80;99.50;;;;;;5090385;28;20131;-73
2023/06/24 10:55:19;;;;;;;5.35;3.30;;;26.90;98.90;;;;;;5091039;28;20193;-72
2023/06/24 10:57:45;;;;;;;5.05;3.53;;;26.90;99.40;;;;;;5090622;28;20051;-73
2023/06/24 11:00:13;;;;;;;6.35;3.92;;;27.00;99.40;;;;;;5090358;28;20123;-73
2023/06/24 11:02:38;;;;;;;7.28;3.60;;;27.00;99.20;;;;;;5067394;28;20178;-71
2023/06/24 11:05:05;;;;;;;5.57;3.72;;;26.80;99.00;;;;;;5080003;28;20581;-72
2023/06/24 11:07:34;;;;;;;4.97;3.38;;;27.10;99.20;;;;;;5081673;28;20498;-72
2023/06/24 11:10:12;;;;;;;5.25;4.20;;;27.20;99.10;;;;;;5063437;28;20432;-72
2023/06/24 11:12:39;;;;;;;5.90;3.88;;;27.40;99.10;;;;;;5078527;28;20044;-72
2023/06/24 11:15:07;;;;;;;6.05;3.75;;;27.40;99.30;;;;;;5081228;28;20121;-72
2023/06/24 11:17:34;;;;;;;7.07;3.75;;;27.50;98.90;;;;;;5069408;28;20052;-72
2023/06/24 11:20:01;;;;;;;8.20;3.72;;;27.50;98.60;;;;;;5069896;28;20407;-72
2023/06/24 11:22:27;;;;;;;5.13;3.55;;;27.40;99.00;;;;;;5069658;28;20048;-72
2023/06/24 11:24:53;;;;;;;4.45;3.85;;;27.40;99.10;;;;;;5051844;28;20416;-72
2023/06/24 11:27:25;;;;;;;5.07;3.60;;;27.30;98.30;;;;;;5069898;28;20048;-72
2023/06/24 11:29:58;;;;;;;6.13;3.45;;;27.30;98.60;;;;;;5069374;28;20127;-71
2023/06/24 11:32:24;;;;;;;6.93;3.10;;;27.50;98.50;;;;;;5069695;28;20514;-72
2023/06/24 11:34:50;;;;;;;6.60;3.85;;;27.50;98.30;;;;;;5070030;28;20044;-71
2023/06/24 11:37:18;;;;;;;5.95;3.53;;;27.40;98.40;;;;;;5069260;28;20073;-71
2023/06/24 11:39:45;;;;;;;7.72;3.15;;;27.60;98.40;;;;;;5069196;28;20041;-71
2023/06/24 11:42:11;;;;;;;5.65;3.67;;;27.70;98.20;;;;;;5069728;28;20053;-72
2023/06/24 11:44:43;;;;;;;4.60;3.33;;;27.50;98.00;;;;;;5054216;28;20085;-71
2023/06/24 11:47:09;;;;;;;;;;;27.60;98.20;;;;;;5076771;28;20094;-71
2023/06/24 11:49:52;;;;;;;5.70;3.13;;;27.60;97.90;;;;;;5069592;28;20018;-72
2023/06/24 11:52:18;;;;;;;4.63;3.22;;;27.60;97.10;;;;;;5069209;28;20091;-72
2023/06/24 11:54:43;;;;;;;6.85;3.47;;;27.30;97.60;;;;;;5069670;28;20076;-71
2023/06/24 11:57:09;;;;;;;4.82;3.08;;;27.30;97.80;;;;;;5069598;28;20049;-72
2023/06/24 11:59:35;;;;;;;3.60;2.95;;;27.40;97.80;;;;;;5068944;28;20063;-72
2023/06/24 12:02:03;;;;;;;5.97;2.70;;;27.40;97.70;;;;;;5072417;28;20068;-72
2023/06/24 12:04:33;;;;;;;5.45;3.08;;;27.60;97.80;;;;;;5052300;28;20372;-72
2023/06/24 12:07:00;;;;;;;5.90;3.00;;;27.60;97.30;;;;;;5069070;28;20045;-72
2023/06/24 12:09:25;;;;;;;4.15;3.13;;;27.70;97.00;;;;;;5069085;28;20049;-72
2023/06/24 12:11:52;;;;;;;4.25;2.80;;;27.60;97.30;;;;;;5069183;28;20071;-72
2023/06/24 12:14:18;;;;;;;4.78;3.10;;;27.60;97.40;;;;;;5069443;28;20048;-72
2023/06/24 12:16:44;;;;;;;5.97;3.05;;;27.70;97.30;;;;;;5069183;28;20048;-72
2023/06/24 12:19:10;;;;;;;4.13;3.30;;;27.60;96.90;;;;;;5069305;28;20044;-72
2023/06/24 12:21:36;;;;;;;5.38;2.75;;;27.60;97.00;;;;;;5068800;28;20190;-72
2023/06/24 12:24:02;;;;;;;3.78;2.50;;;27.90;97.20;;;;;;5050933;28;20044;-71
2023/06/24 12:26:28;;;;;;;8.20;3.38;;;28.10;97.10;;;;;;5069379;28;20756;-72
2023/06/24 12:28:56;;;;;;;5.75;2.70;;;28.20;96.90;;;;;;5069230;28;20087;-72
2023/06/24 12:31:22;;;;;;;4.85;3.22;;;28.10;96.90;;;;;;5068797;28;20051;-72
2023/06/24 12:33:47;;;;;;;5.10;3.08;;;27.90;97.00;;;;;;5069337;28;20048;-72
2023/06/24 12:36:13;;;;;;;4.82;3.13;;;28.00;97.00;;;;;;5069383;28;20052;-72
2023/06/24 12:38:38;;;;;;;7.72;2.97;;;27.90;97.10;;;;;;5068820;28;20053;-72
2023/06/24 12:41:04;;;;;;;3.78;2.92;;;27.80;97.00;;;;;;5068605;28;20067;-72
2023/06/24 12:43:30;;;;;;;4.20;3.20;;;27.80;97.10;;;;;;5068929;28;20380;-72
2023/06/24 12:45:56;;;;;;;3.63;2.85;;;28.00;97.00;;;;;;5068598;28;20103;-72
2023/06/24 12:48:21;;;;;;;4.82;2.75;;;28.20;97.10;;;;;;5050470;28;20052;-72
2023/06/24 12:50:48;;;;;;;4.53;2.70;;;28.10;97.30;;;;;;5068977;28;20044;-72
2023/06/24 12:53:15;;;;;;;7.90;3.15;;;28.10;97.10;;;;;;5068562;28;20149;-72
2023/06/24 12:55:41;;;;;;;3.85;3.15;;;28.00;97.10;;;;;;5068928;28;20044;-72
2023/06/24 12:58:07;;;;;;;5.65;3.33;;;28.10;97.20;;;;;;5068477;28;20067;-72
2023/06/24 13:00:33;;;;;;;5.05;3.20;;;28.00;97.40;;;;;;5072016;28;20106;-72
2023/06/24 13:02:59;;;;;;;5.88;3.00;;;28.10;97.40;;;;;;5072341;28;20052;-72
2023/06/24 13:05:24;;;;;;;5.45;3.33;;;28.20;97.50;;;;;;5072551;28;20048;-72
2023/06/24 13:07:51;;;;;;;5.88;2.90;;;28.20;97.00;;;;;;5072292;28;20044;-72
2023/06/24 13:10:17;;;;;;;5.03;3.05;;;28.20;97.20;;;;;;5054152;28;20045;-72
2023/06/24 13:12:42;;;;;;;5.90;3.00;;;28.10;97.00;;;;;;5072253;28;20052;-72
2023/06/24 13:15:10;;;;;;;9.13;3.15;;;28.00;97.10;;;;;;5072462;28;20411;-72
2023/06/24 13:17:36;;;;;;;3.78;2.60;;;28.10;97.30;;;;;;5072467;28;20052;-72
2023/06/24 13:20:04;;;;;;;3.95;2.90;;;28.00;97.20;;;;;;5072330;28;20487;-73
2023/06/24 13:22:30;;;;;;;6.05;3.08;;;27.90;97.10;;;;;;5054147;28;20452;-72
2023/06/24 13:24:56;;;;;;;5.30;3.00;;;28.00;97.00;;;;;;5053840;28;20044;-72
2023/06/24 13:27:22;;;;;;;4.70;2.90;;;28.10;97.20;;;;;;5072161;28;20041;-73
2023/06/24 13:29:48;;;;;;;4.38;3.60;;;28.20;97.10;;;;;;5071626;28;20052;-72
2023/06/24 13:32:13;;;;;;;4.03;2.60;;;28.30;97.10;;;;;;5072158;28;20230;-72
2023/06/24 13:34:39;;;;;;;3.40;2.70;;;28.10;96.90;;;;;;5072405;28;20040;-72
2023/06/24 13:37:05;;;;;;;4.22;3.00;;;28.00;97.10;;;;;;5072025;28;20521;-72
2023/06/24 13:39:32;;;;;;;6.15;2.90;;;28.00;97.30;;;;;;5072071;28;20051;-72
2023/06/24 13:41:57;;;;;;;4.32;3.03;;;28.20;97.10;;;;;;5071672;28;20117;-72
2023/06/24 13:44:23;;;;;;;4.28;3.38;;;28.10;97.40;;;;;;5071345;28;20794;-72
2023/06/24 13:46:50;;;;;;;6.85;3.75;;;28.30;97.60;;;;;;5071547;28;20058;-72
2023/06/24 13:49:16;;;;;;;8.23;3.20;;;28.20;97.70;;;;;;5071384;28;20044;-72
2023/06/24 13:51:42;;;;;;;5.05;3.50;;;28.00;97.80;;;;;;5071621;28;20051;-72
2023/06/24 13:54:08;;;;;;;6.18;3.78;;;27.90;98.00;;;;;;5071683;28;20056;-72
2023/06/24 13:56:34;;;;;;;4.82;3.35;;;28.00;97.90;;;;;;5071454;28;20055;-72
2023/06/24 13:59:00;;;;;;;3.72;3.33;;;27.80;98.00;;;;;;5071094;28;20060;-72
2023/06/24 14:01:28;;;;;;;5.65;3.85;;;27.80;98.30;;;;;;5071091;28;20050;-72
2023/06/24 14:03:54;;;;;;;4.63;3.28;;;27.70;98.40;;;;;;5071108;28;20051;-71
2023/06/24 14:06:22;;;;;;;5.03;3.85;;;27.70;98.60;;;;;;5070906;28;20056;-72
2023/06/24 14:08:49;;;;;;;4.28;3.05;;;27.60;98.50;;;;;;5052989;28;20147;-72
2023/06/24 14:11:15;;;;;;;7.60;3.58;;;27.70;98.40;;;;;;5071091;28;20048;-71
2023/06/24 14:13:42;;;;;;;7.82;3.75;;;27.60;98.50;;;;;;5070738;28;20048;-72
2023/06/24 14:16:08;;;;;;;6.35;3.67;;;27.50;98.50;;;;;;5071381;28;20048;-72
2023/06/24 14:18:34;;;;;;;4.45;2.97;;;27.40;98.20;;;;;;5071180;28;20052;-72
2023/06/24 14:21:01;;;;;;;5.50;3.70;;;27.40;98.40;;;;;;5071122;28;20052;-72
2023/06/24 14:23:28;;;;;;;6.43;3.65;;;27.50;98.40;;;;;;5071060;28;20076;-72
2023/06/24 14:25:54;;;;;;;6.15;3.97;;;27.40;98.50;;;;;;5070526;28;20044;-72
2023/06/24 14:28:20;;;;;;;4.38;3.38;;;27.70;98.30;;;;;;5070913;28;20439;-72
2023/06/24 14:30:46;;;;;;;4.22;3.08;;;27.60;98.50;;;;;;5070583;28;20439;-71
2023/06/24 14:33:12;;;;;;;7.00;3.70;;;27.50;98.30;;;;;;5070723;28;20037;-71
2023/06/24 14:35:38;;;;;;;4.65;3.05;;;27.40;98.40;;;;;;5070796;28;20088;-72
2023/06/24 14:38:04;;;;;;;6.68;3.63;;;27.30;98.40;;;;;;5070798;28;20087;-72
2023/06/24 14:40:30;;;;;;;5.60;3.40;;;27.20;98.30;;;;;;5070359;28;20044;-72
2023/06/24 14:42:56;;;;;;;5.88;4.05;;;27.20;98.40;;;;;;5070493;28;20127;-72
2023/06/24 14:45:22;;;;;;;5.35;3.30;;;27.20;98.40;;;;;;5070699;28;20155;-72
2023/06/24 14:47:48;;;;;;;5.47;3.25;;;27.20;98.40;;;;;;5052226;28;20572;-71
2023/06/24 14:50:14;;;;;;;10.95;3.60;;;27.20;98.30;;;;;;5070966;28;20044;-72
2023/06/24 14:52:40;;;;;;;4.63;3.38;;;27.10;98.50;;;;;;5070795;28;20124;-72
2023/06/24 14:55:06;;;;;;;4.28;3.50;;;27.20;98.80;;;;;;5070248;28;20421;-72
2023/06/24 14:57:32;;;;;;;7.25;4.05;;;27.10;98.80;;;;;;5070585;28;20048;-72
2023/06/24 14:59:58;;;;;;;6.55;3.47;;;27.10;98.50;;;;;;5070104;28;20060;-72
2023/06/24 15:02:25;;;;;;;4.25;3.30;;;27.00;98.60;;;;;;5069822;28;20044;-70
2023/06/24 15:04:51;;;;;;;5.00;3.25;;;27.00;98.60;;;;;;5078769;28;20044;-71
2023/06/24 15:07:17;;;;;;;6.28;3.45;;;27.00;98.60;;;;;;5081073;28;20079;-71
2023/06/24 15:09:44;;;;;;;4.25;3.35;;;26.90;98.70;;;;;;5084202;28;20051;-71
2023/06/24 15:12:10;;;;;;;4.82;4.03;;;27.10;98.70;;;;;;5084874;28;20188;-70
2023/06/24 15:14:36;;;;;;;6.78;3.65;;;27.00;98.70;;;;;;5069297;28;20056;-70
2023/06/24 15:17:02;;;;;;;6.47;3.47;;;27.00;98.70;;;;;;5089546;28;20036;-71
2023/06/24 15:19:28;;;;;;;4.03;3.35;;;27.10;98.70;;;;;;5089600;28;20509;-71
2023/06/24 15:21:53;;;;;;;5.18;3.20;;;27.10;98.60;;;;;;5089215;28;20036;-71
2023/06/24 15:24:19;;;;;;;5.72;3.42;;;27.10;98.80;;;;;;5089372;28;20040;-71
2023/06/24 15:26:45;;;;;;;4.65;3.40;;;27.10;98.30;;;;;;5089818;28;20048;-72
2023/06/24 15:29:10;;;;;;;5.43;3.08;;;27.10;98.40;;;;;;5089763;28;20482;-71
2023/06/24 15:31:36;;;;;;;4.32;3.30;;;27.40;98.50;;;;;;5089248;28;20114;-72
2023/06/24 15:34:02;;;;;;;5.55;3.15;;;27.30;98.50;;;;;;5089548;28;20044;-71
2023/06/24 15:36:29;;;;;;;3.88;3.28;;;27.40;98.50;;;;;;5089358;28;20082;-71
2023/06/24 15:38:55;;;;;;;8.30;3.05;;;27.40;98.30;;;;;;5088716;28;20047;-71
2023/06/24 15:41:21;;;;;;;7.00;3.10;;;27.50;98.20;;;;;;5086195;28;20113;-71
2023/06/24 15:43:47;;;;;;;4.38;3.20;;;27.50;98.20;;;;;;5087298;28;20051;-72
2023/06/24 15:46:13;;;;;;;3.13;2.72;;;27.40;98.00;;;;;;5088727;28;20047;-72
2023/06/24 15:48:39;;;;;;;9.07;3.05;;;27.50;98.20;;;;;;5070889;28;20047;-71
2023/06/24 15:51:05;;;;;;;3.97;3.28;;;27.50;98.20;;;;;;5089142;28;20040;-71
2023/06/24 15:53:31;;;;;;;5.03;3.20;;;27.30;98.00;;;;;;5089752;28;20044;-71
2023/06/24 15:55:56;;;;;;;5.88;3.53;;;27.30;98.00;;;;;;5089690;28;20075;-70
2023/06/24 15:58:22;;;;;;;5.18;3.28;;;27.30;98.00;;;;;;5089434;28;20494;-71
2023/06/24 16:00:48;;;;;;;7.03;3.10;;;27.20;98.20;;;;;;5089742;28;20048;-71
2023/06/24 16:03:14;;;;;;;4.43;3.20;;;27.20;98.20;;;;;;5090843;28;20052;-71
2023/06/24 16:05:39;;;;;;;5.18;3.47;;;27.20;98.00;;;;;;5090519;28;20052;-71
2023/06/24 16:08:05;;;;;;;8.65;3.30;;;27.40;98.20;;;;;;5089652;28;20371;-71
2023/06/24 16:10:31;;;;;;;4.68;2.65;;;27.50;98.00;;;;;;5090096;28;20106;-71
2023/06/24 16:12:56;;;;;;;9.82;3.63;;;27.40;98.20;;;;;;5089450;28;20125;-71
2023/06/24 16:15:22;;;;;;;4.00;3.13;;;27.50;98.10;;;;;;5089424;28;20143;-71
2023/06/24 16:17:48;;;;;;;4.30;3.20;;;27.50;97.90;;;;;;5089685;28;20110;-72
2023/06/24 16:20:16;;;;;;;6.78;3.33;;;27.80;97.80;;;;;;5089625;28;20048;-71
2023/06/24 16:22:45;;;;;;;5.82;3.17;;;27.90;97.50;;;;;;5089314;28;20056;-71
2023/06/24 16:25:11;;;;;;;3.65;3.03;;;28.10;97.30;;;;;;5071056;28;20110;-71
2023/06/24 16:27:37;;;;;;;5.97;3.30;;;27.90;97.40;;;;;;5089390;28;20048;-72
2023/06/24 16:30:03;;;;;;;3.75;3.00;;;28.00;97.50;;;;;;5089116;28;20280;-71
2023/06/24 16:32:29;;;;;;;5.22;3.30;;;28.10;97.50;;;;;;5089081;28;20064;-71
2023/06/24 16:34:55;;;;;;;5.15;3.40;;;28.10;97.20;;;;;;5092467;28;20055;-71
2023/06/24 16:37:21;;;;;;;3.63;3.03;;;27.80;97.20;;;;;;5093493;28;20113;-71
2023/06/24 16:39:46;;;;;;;6.10;3.38;;;27.90;97.30;;;;;;5093419;28;20044;-72
2023/06/24 16:42:12;;;;;;;4.75;2.97;;;27.90;97.30;;;;;;5089251;28;20082;-72